Time;durP1;ratioP1;P1;durP2;ratioP2;P2;SDS_P1;SDS_P2;PMS_P1;PMS_P2;Temp;Humidity;BMP_temperature;BMP_pressure;BME280_temperature;BME280_humidity;BME280_pressure;Samples;Min_cycle;Max_cycle;Signal;HPM_P1;HPM_P2
2023/03/22 00:01:46;;;;;;;8.57;3.17;;;;;;;;;;5028622;28;20029;-73
2023/03/22 00:04:31;;;;;;;6.50;2.60;;;;;;;;;;5028140;28;20036;-73
2023/03/22 00:07:16;;;;;;;7.93;2.78;;;;;;;;;;5020300;28;20060;-67
2023/03/22 00:10:02;;;;;;;7.15;3.40;;;;;;;;;;5048131;28;20029;-72
2023/03/22 00:12:47;;;;;;;7.38;3.10;;;;;;;;;;5025540;28;20025;-70
2023/03/22 00:15:33;;;;;;;7.30;3.33;;;;;;;;;;5041580;28;20059;-71
2023/03/22 00:18:18;;;;;;;5.88;2.65;;;;;;;;;;5020099;28;20033;-70
2023/03/22 00:21:04;;;;;;;6.60;2.75;;;;;;;;;;5033672;28;20048;-71
2023/03/22 00:23:49;;;;;;;7.22;3.20;;;;;;;;;;5032933;28;20029;-72
2023/03/22 00:26:34;;;;;;;5.93;2.78;;;;;;;;;;5048383;28;20510;-73
2023/03/22 00:29:21;;;;;;;7.55;2.70;;;;;;;;;;5044424;28;20048;-70
2023/03/22 00:32:06;;;;;;;6.78;2.92;;;;;;;;;;5043339;28;20025;-71
2023/03/22 00:34:52;;;;;;;9.55;3.17;;;;;;;;;;5016097;28;20116;-71
2023/03/22 00:37:37;;;;;;;4.88;2.15;;;;;;;;;;5028092;28;20021;-69
2023/03/22 00:40:22;;;;;;;5.53;2.90;;;;;;;;;;5024525;28;20035;-72
2023/03/22 00:43:08;;;;;;;7.57;2.65;;;;;;;;;;5040820;28;20056;-70
2023/03/22 00:45:53;;;;;;;3.78;2.45;;;;;;;;;;5033346;28;20618;-69
2023/03/22 00:48:38;;;;;;;5.55;2.22;;;;;;;;;;5028584;28;20033;-73
2023/03/22 00:51:24;;;;;;;6.35;2.90;;;;;;;;;;5031090;28;20017;-73
2023/03/22 00:54:09;;;;;;;7.30;2.67;;;;;;;;;;5034957;28;20025;-75
2023/03/22 00:56:54;;;;;;;6.95;2.88;;;;;;;;;;5035410;28;20017;-74
2023/03/22 00:59:41;;;;;;;6.68;2.40;;;;;;;;;;5022953;28;20025;-74
2023/03/22 01:02:28;;;;;;;3.75;2.72;;;;;;;;;;5046138;28;20090;-70
2023/03/22 01:05:14;;;;;;;6.20;2.05;;;;;;;;;;5031900;28;20033;-72
2023/03/22 01:08:01;;;;;;;7.38;2.15;;;;;;;;;;5046218;28;20404;-73
2023/03/22 01:10:47;;;;;;;5.00;2.50;;;;;;;;;;5047843;28;20020;-73
2023/03/22 01:13:33;;;;;;;6.93;2.55;;;;;;;;;;5049190;28;20028;-74
2023/03/22 01:16:18;;;;;;;4.00;2.15;;;;;;;;;;5018157;28;20049;-73
2023/03/22 01:19:03;;;;;;;4.22;2.45;;;;;;;;;;5044076;28;20029;-74
2023/03/22 01:21:49;;;;;;;5.10;2.22;;;;;;;;;;5042719;28;20426;-73
2023/03/22 01:24:34;;;;;;;3.83;2.20;;;;;;;;;;5034372;28;20027;-76
2023/03/22 01:27:19;;;;;;;5.10;2.30;;;;;;;;;;5039284;28;20037;-76
2023/03/22 01:30:05;;;;;;;4.03;1.92;;;;;;;;;;5022262;28;20790;-76
2023/03/22 01:32:50;;;;;;;5.97;2.25;;;;;;;;;;5031703;28;20024;-77
2023/03/22 01:35:36;;;;;;;4.70;2.53;;;;;;;;;;5047645;28;20025;-77
2023/03/22 01:38:21;;;;;;;4.93;2.38;;;;;;;;;;5044073;28;20032;-77
2023/03/22 01:41:06;;;;;;;5.63;2.80;;;;;;;;;;5029296;28;20571;-68
2023/03/22 01:44:12;;;;;;;6.68;2.03;;;;;;;;;;5039692;28;20192;-77
2023/03/22 01:46:57;;;;;;;7.32;1.90;;;;;;;;;;5035267;28;20037;-75
2023/03/22 01:49:42;;;;;;;5.10;2.13;;;;;;;;;;5031404;28;20647;-78
2023/03/22 01:52:28;;;;;;;5.07;2.17;;;;;;;;;;5046556;28;20055;-74
2023/03/22 01:55:13;;;;;;;3.42;2.20;;;;;;;;;;5017447;28;20468;-76
2023/03/22 01:57:59;;;;;;;5.10;2.35;;;;;;;;;;5031970;28;20033;-68
2023/03/22 02:00:46;;;;;;;5.35;2.15;;;;;;;;;;5037859;28;20029;-69
2023/03/22 02:03:51;;;;;;;2.83;1.98;;;;;;;;;;5050773;28;20027;-68
2023/03/22 02:06:37;;;;;;;5.15;2.20;;;;;;;;;;5045667;28;20037;-68
2023/03/22 02:09:22;;;;;;;3.00;2.00;;;;;;;;;;5047099;28;20105;-69
2023/03/22 02:12:07;;;;;;;3.55;1.90;;;;;;;;;;5042933;28;20059;-68
2023/03/22 02:15:02;;;;;;;6.63;2.22;;;;;;;;;;5040440;28;20042;-68
2023/03/22 02:17:50;;;;;;;4.07;2.25;;;;;;;;;;5039391;28;20114;-71
2023/03/22 02:20:45;;;;;;;2.33;1.80;;;;;;;;;;5034395;28;20033;-68
2023/03/22 02:23:31;;;;;;;4.60;2.20;;;;;;;;;;5030904;28;20022;-68
2023/03/22 02:26:28;;;;;;;3.80;1.88;;;;;;;;;;5030065;28;20033;-68
2023/03/22 02:29:25;;;;;;;2.67;1.75;;;;;;;;;;5034124;28;20055;-69
2023/03/22 02:32:29;;;;;;;4.78;2.22;;;;;;;;;;5034670;28;20045;-68
2023/03/22 02:35:26;;;;;;;6.30;2.22;;;;;;;;;;5043964;28;20025;-72
2023/03/22 02:38:30;;;;;;;4.15;2.00;;;;;;;;;;5029570;28;20116;-71
2023/03/22 02:41:34;;;;;;;5.30;2.35;;;;;;;;;;5024368;28;20021;-71
2023/03/22 02:44:38;;;;;;;3.80;2.30;;;;;;;;;;5039209;28;20037;-71
2023/03/22 02:47:39;;;;;;;3.28;2.17;;;;;;;;;;5048333;28;20123;-71
2023/03/22 02:50:51;;;;;;;4.60;2.40;;;;;;;;;;5048804;28;20032;-71
2023/03/22 02:53:40;;;;;;;4.20;2.40;;;;;;;;;;5025592;28;20033;-74
2023/03/22 02:56:38;;;;;;;7.63;2.50;;;;;;;;;;5026382;28;20465;-77
2023/03/22 02:59:24;;;;;;;5.07;2.60;;;;;;;;;;5025723;28;20049;-78
2023/03/22 03:02:11;;;;;;;3.80;2.50;;;;;;;;;;5049376;28;20067;-78
2023/03/22 03:04:56;;;;;;;3.97;2.38;;;;;;;;;;5046333;28;20056;-78
2023/03/22 03:07:44;;;;;;;5.28;2.00;;;;;;;;;;5050021;28;20068;-78
2023/03/22 03:10:30;;;;;;;4.20;2.38;;;;;;;;;;5044104;28;20079;-78
2023/03/22 03:13:16;;;;;;;9.85;2.38;;;;;;;;;;5045825;28;20053;-78
2023/03/22 03:16:04;;;;;;;4.97;2.20;;;;;;;;;;5046405;28;20372;-79
2023/03/22 03:18:56;;;;;;;4.57;2.37;;;;;;;;;;5049986;28;20025;-78
2023/03/22 03:21:56;;;;;;;3.50;2.05;;;;;;;;;;5016732;28;20566;-78
2023/03/22 03:24:47;;;;;;;5.40;1.95;;;;;;;;;;5047591;28;20035;-79
2023/03/22 03:27:43;;;;;;;7.03;2.25;;;;;;;;;;5049460;28;20189;-79
2023/03/22 03:30:32;;;;;;;3.40;1.95;;;;;;;;;;5037839;28;20026;-71
2023/03/22 03:33:19;;;;;;;3.03;2.13;;;;;;;;;;5043761;28;20021;-78
2023/03/22 03:36:08;;;;;;;4.25;2.30;;;;;;;;;;5040939;28;20032;-80
2023/03/22 03:38:55;;;;;;;2.88;1.70;;;;;;;;;;5047894;28;20017;-80
2023/03/22 03:41:42;;;;;;;3.22;2.30;;;;;;;;;;5047045;28;20499;-80
2023/03/22 03:44:29;;;;;;;4.28;2.33;;;;;;;;;;5040124;28;20140;-79
2023/03/22 03:47:14;;;;;;;8.68;2.85;;;;;;;;;;5043745;28;20029;-79
2023/03/22 03:50:00;;;;;;;4.75;1.98;;;;;;;;;;5049176;28;20023;-78
2023/03/22 03:52:45;;;;;;;6.82;2.13;;;;;;;;;;5040709;28;20120;-69
2023/03/22 03:55:31;;;;;;;5.55;2.15;;;;;;;;;;5043028;28;20483;-67
2023/03/22 03:58:16;;;;;;;5.78;2.75;;;;;;;;;;5037264;28;20434;-68
2023/03/22 04:01:02;;;;;;;4.10;2.78;;;;;;;;;;5047088;28;20063;-70
2023/03/22 04:03:49;;;;;;;5.97;2.47;;;;;;;;;;5047403;28;20068;-69
2023/03/22 04:06:34;;;;;;;8.25;1.77;;;;;;;;;;5048793;28;20097;-76
2023/03/22 04:09:20;;;;;;;10.35;2.38;;;;;;;;;;5027678;28;20480;-70
2023/03/22 04:12:08;;;;;;;4.10;2.47;;;;;;;;;;5025131;28;20025;-69
2023/03/22 04:14:54;;;;;;;2.65;1.67;;;;;;;;;;5041854;28;20476;-67
2023/03/22 04:17:40;;;;;;;3.63;1.70;;;;;;;;;;5047739;28;20025;-67
2023/03/22 04:20:25;;;;;;;6.22;1.85;;;;;;;;;;5048825;28;20036;-68
2023/03/22 04:23:11;;;;;;;5.93;2.75;;;;;;;;;;5048735;28;20059;-67
2023/03/22 04:25:58;;;;;;;4.35;2.00;;;;;;;;;;5041710;28;20021;-68
2023/03/22 04:28:43;;;;;;;5.03;2.63;;;;;;;;;;5043835;28;20022;-75
2023/03/22 04:31:29;;;;;;;5.10;2.67;;;;;;;;;;5033461;28;20026;-75
2023/03/22 04:34:15;;;;;;;3.45;2.05;;;;;;;;;;5046095;28;20031;-74
2023/03/22 04:37:01;;;;;;;3.40;1.98;;;;;;;;;;5034514;28;20029;-75
2023/03/22 04:39:46;;;;;;;6.95;2.35;;;;;;;;;;5047917;28;20087;-74
2023/03/22 04:42:32;;;;;;;4.57;2.55;;;;;;;;;;5044671;28;20077;-75
2023/03/22 04:45:17;;;;;;;5.03;2.20;;;;;;;;;;5036547;28;20045;-71
2023/03/22 04:48:02;;;;;;;3.72;2.25;;;;;;;;;;5045139;28;20523;-69
2023/03/22 04:50:47;;;;;;;3.40;2.00;;;;;;;;;;5021461;28;20025;-71
2023/03/22 04:53:38;;;;;;;3.72;2.47;;;;;;;;;;5045723;28;20080;-74
2023/03/22 04:56:23;;;;;;;4.32;2.50;;;;;;;;;;5041658;28;20482;-72
2023/03/22 04:59:09;;;;;;;4.90;2.17;;;;;;;;;;5045145;28;20025;-72
2023/03/22 05:01:55;;;;;;;2.97;1.92;;;;;;;;;;5015225;28;20013;-79
2023/03/22 05:04:40;;;;;;;2.72;1.90;;;;;;;;;;5026571;28;20064;-72
2023/03/22 05:07:26;;;;;;;4.45;2.20;;;;;;;;;;5014721;28;20069;-74
2023/03/22 05:10:11;;;;;;;6.18;2.50;;;;;;;;;;5040572;28;20530;-69
2023/03/22 05:12:56;;;;;;;6.45;3.28;;;;;;;;;;5047333;28;20029;-72
2023/03/22 05:15:41;;;;;;;5.53;2.40;;;;;;;;;;5036992;28;20030;-72
2023/03/22 05:18:27;;;;;;;3.40;2.10;;;;;;;;;;5041966;28;20156;-71
2023/03/22 05:21:14;;;;;;;6.30;2.70;;;;;;;;;;5042921;28;20592;-70
2023/03/22 05:23:59;;;;;;;5.18;2.20;;;;;;;;;;5039457;28;20596;-70
2023/03/22 05:26:45;;;;;;;3.45;2.00;;;;;;;;;;5033897;28;20124;-70
2023/03/22 05:29:35;;;;;;;4.60;2.20;;;;;;;;;;5039933;28;20031;-69
2023/03/22 05:32:24;;;;;;;6.00;2.22;;;;;;;;;;5040498;28;20021;-69
2023/03/22 05:35:09;;;;;;;5.57;2.70;;;;;;;;;;5033000;28;22120;-68
2023/03/22 05:37:55;;;;;;;4.35;2.35;;;;;;;;;;5045378;28;20093;-68
2023/03/22 05:40:41;;;;;;;4.70;2.60;;;;;;;;;;5044137;28;20064;-72
2023/03/22 05:43:26;;;;;;;4.38;2.10;;;;;;;;;;5036510;28;20025;-69
2023/03/22 05:46:12;;;;;;;5.78;2.60;;;;;;;;;;5043525;28;20134;-68
2023/03/22 05:48:57;;;;;;;11.00;2.90;;;;;;;;;;5041693;28;20068;-68
2023/03/22 05:51:42;;;;;;;6.90;3.55;;;;;;;;;;5031578;28;20863;-73
2023/03/22 05:54:27;;;;;;;6.53;2.60;;;;;;;;;;5033018;28;20049;-68
2023/03/22 05:57:12;;;;;;;5.00;2.63;;;;;;;;;;5041368;28;20025;-79
2023/03/22 05:59:58;;;;;;;5.07;2.47;;;;;;;;;;5024235;28;20119;-75
2023/03/22 06:02:44;;;;;;;6.60;2.53;;;;;;;;;;5041958;28;20029;-77
2023/03/22 06:05:30;;;;;;;6.38;2.60;;;;;;;;;;5053965;28;20057;-77
2023/03/22 06:08:16;;;;;;;5.00;2.58;;;;;;;;;;5032918;28;20042;-76
2023/03/22 06:11:01;;;;;;;8.43;3.08;;;;;;;;;;5045932;28;20038;-75
2023/03/22 06:13:46;;;;;;;6.78;2.50;;;;;;;;;;5046802;28;20120;-77
2023/03/22 06:16:32;;;;;;;4.65;2.63;;;;;;;;;;5044736;28;20379;-72
2023/03/22 06:19:17;;;;;;;6.20;2.95;;;;;;;;;;5034999;28;20108;-75
2023/03/22 06:22:02;;;;;;;8.45;4.45;;;;;;;;;;5021614;28;20128;-74
2023/03/22 06:24:48;;;;;;;6.75;2.95;;;;;;;;;;5023994;28;20403;-74
2023/03/22 06:27:33;;;;;;;7.07;3.28;;;;;;;;;;5023396;28;20033;-74
2023/03/22 06:30:18;;;;;;;7.93;3.00;;;;;;;;;;5033809;28;20056;-73
2023/03/22 06:33:05;;;;;;;6.07;3.13;;;;;;;;;;5027430;28;20025;-71
2023/03/22 06:35:50;;;;;;;6.10;3.15;;;;;;;;;;5051237;28;20033;-70
2023/03/22 06:38:35;;;;;;;7.05;3.65;;;;;;;;;;5041186;28;20037;-70
2023/03/22 06:41:20;;;;;;;6.13;3.50;;;;;;;;;;5042625;28;20130;-73
2023/03/22 06:44:05;;;;;;;7.25;3.17;;;;;;;;;;5041987;28;20468;-71
2023/03/22 06:46:51;;;;;;;5.82;3.20;;;;;;;;;;5040454;28;20056;-68
2023/03/22 06:49:36;;;;;;;7.32;3.35;;;;;;;;;;5048888;28;20025;-70
2023/03/22 06:52:21;;;;;;;7.32;3.30;;;;;;;;;;5038311;28;20026;-72
2023/03/22 06:55:07;;;;;;;8.05;3.03;;;;;;;;;;5026725;28;20033;-69
2023/03/22 06:57:58;;;;;;;6.97;3.03;;;;;;;;;;5031584;28;20037;-69
2023/03/22 07:00:43;;;;;;;9.15;2.60;;;;;;;;;;5032207;28;20043;-69
2023/03/22 07:03:28;;;;;;;7.43;3.70;;;;;;;;;;5019949;28;20714;-68
2023/03/22 07:06:14;;;;;;;6.40;2.95;;;;;;;;;;5040076;28;20109;-70
2023/03/22 07:09:00;;;;;;;9.35;3.00;;;;;;;;;;5038251;28;20075;-69
2023/03/22 07:11:45;;;;;;;6.95;3.53;;;;;;;;;;5040517;28;20484;-76
2023/03/22 07:14:31;;;;;;;12.57;3.20;;;;;;;;;;5025087;28;20029;-72
2023/03/22 07:17:16;;;;;;;6.25;2.85;;;;;;;;;;5033002;28;20083;-72
2023/03/22 07:20:02;;;;;;;6.15;2.58;;;;;;;;;;5038487;28;20033;-71
2023/03/22 07:22:50;;;;;;;11.77;3.13;;;;;;;;;;5037910;28;20764;-73
2023/03/22 07:25:35;;;;;;;8.48;3.33;;;;;;;;;;5026659;28;20036;-67
2023/03/22 07:28:21;;;;;;;7.35;2.72;;;;;;;;;;5036917;28;20041;-73
2023/03/22 07:31:08;;;;;;;5.28;2.47;;;;;;;;;;5039660;28;20086;-71
2023/03/22 07:33:54;;;;;;;8.27;2.65;;;;;;;;;;5051466;28;20044;-72
2023/03/22 07:36:39;;;;;;;6.43;2.55;;;;;;;;;;5040039;28;20033;-72
2023/03/22 07:39:25;;;;;;;5.80;2.63;;;;;;;;;;5021046;28;20025;-70
2023/03/22 07:42:10;;;;;;;7.32;2.58;;;;;;;;;;5022890;28;20422;-73
2023/03/22 07:44:55;;;;;;;8.13;2.90;;;;;;;;;;5035196;28;20131;-72
2023/03/22 07:47:41;;;;;;;8.35;3.63;;;;;;;;;;5041384;28;20459;-66
2023/03/22 07:50:26;;;;;;;8.93;2.60;;;;;;;;;;5034690;28;20056;-77
2023/03/22 07:53:11;;;;;;;6.45;2.40;;;;;;;;;;5031305;28;20067;-78
2023/03/22 07:55:56;;;;;;;4.25;2.50;;;;;;;;;;5038374;28;20028;-77
2023/03/22 07:58:42;;;;;;;4.68;1.90;;;;;;;;;;5035018;28;20028;-76
2023/03/22 08:01:27;;;;;;;7.00;2.28;;;;;;;;;;5030389;28;21275;-78
2023/03/22 08:04:12;;;;;;;4.10;1.70;;;;;;;;;;5021311;28;20022;-74
2023/03/22 08:06:58;;;;;;;3.13;1.80;;;;;;;;;;5036540;28;20068;-69
2023/03/22 08:09:44;;;;;;;3.47;1.92;;;;;;;;;;5018237;28;20040;-71
2023/03/22 08:12:31;;;;;;;5.47;1.90;;;;;;;;;;5032723;28;20050;-69
2023/03/22 08:15:16;;;;;;;4.50;1.70;;;;;;;;;;5033648;28;20245;-69
2023/03/22 08:18:01;;;;;;;7.97;2.13;;;;;;;;;;5033673;28;20037;-70
2023/03/22 08:20:51;;;;;;;4.63;1.50;;;;;;;;;;5032068;28;20086;-72
2023/03/22 08:23:36;;;;;;;4.85;1.60;;;;;;;;;;5034634;28;20024;-72
2023/03/22 08:26:22;;;;;;;2.25;1.40;;;;;;;;;;5036869;28;20033;-79
2023/03/22 08:29:07;;;;;;;4.97;1.70;;;;;;;;;;5035927;28;20075;-78
2023/03/22 08:31:52;;;;;;;5.75;1.65;;;;;;;;;;5032018;28;20083;-80
2023/03/22 08:34:38;;;;;;;4.20;1.70;;;;;;;;;;5035125;28;20044;-78
2023/03/22 08:37:23;;;;;;;3.17;1.63;;;;;;;;;;5022736;28;20040;-81
2023/03/22 08:40:09;;;;;;;6.20;1.80;;;;;;;;;;5023402;28;20041;-77
2023/03/22 08:42:54;;;;;;;3.95;1.50;;;;;;;;;;5030457;28;20128;-78
2023/03/22 08:45:39;;;;;;;2.55;1.60;;;;;;;;;;5030270;28;20567;-77
2023/03/22 08:48:27;;;;;;;2.50;1.35;;;;;;;;;;5036452;28;20140;-76
2023/03/22 08:51:13;;;;;;;2.83;1.60;;;;;;;;;;5037639;28;20052;-77
2023/03/22 08:53:59;;;;;;;3.30;1.20;;;;;;;;;;5035414;28;20025;-77
2023/03/22 08:56:44;;;;;;;2.10;1.00;;;;;;;;;;5027861;28;20051;-81
2023/03/22 08:59:30;;;;;;;4.15;1.00;;;;;;;;;;5034590;28;20115;-80
2023/03/22 09:02:15;;;;;;;5.68;1.45;;;;;;;;;;5031831;28;20044;-79
2023/03/22 09:05:00;;;;;;;1.90;1.35;;;;;;;;;;5033822;28;20025;-72
2023/03/22 09:07:45;;;;;;;1.38;1.05;;;;;;;;;;5020591;28;20043;-71
2023/03/22 09:10:31;;;;;;;2.17;1.13;;;;;;;;;;5027499;28;20109;-70
2023/03/22 09:13:16;;;;;;;1.45;1.00;;;;;;;;;;5038748;28;20022;-70
2023/03/22 09:16:03;;;;;;;1.98;1.13;;;;;;;;;;5035364;28;20037;-70
2023/03/22 09:18:48;;;;;;;2.47;1.00;;;;;;;;;;5032711;28;20032;-70
2023/03/22 09:21:33;;;;;;;2.95;1.10;;;;;;;;;;5033944;28;20430;-72
2023/03/22 09:24:19;;;;;;;2.38;1.27;;;;;;;;;;5032023;28;20037;-71
2023/03/22 09:27:04;;;;;;;2.67;1.75;;;;;;;;;;5032308;28;20526;-70
2023/03/22 09:29:50;;;;;;;3.88;1.08;;;;;;;;;;5037591;28;20035;-72
2023/03/22 09:32:36;;;;;;;3.28;1.00;;;;;;;;;;5034972;28;20041;-71
2023/03/22 09:35:21;;;;;;;2.40;1.02;;;;;;;;;;5029131;28;20505;-72
2023/03/22 09:38:06;;;;;;;3.38;1.15;;;;;;;;;;5021464;28;20025;-70
2023/03/22 09:40:59;;;;;;;5.93;1.17;;;;;;;;;;5031733;28;20583;-67
2023/03/22 09:43:49;;;;;;;1.10;0.90;;;;;;;;;;5028977;28;20040;-66
2023/03/22 09:46:37;;;;;;;3.10;1.13;;;;;;;;;;5028335;28;20052;-66
2023/03/22 09:49:25;;;;;;;2.83;1.38;;;;;;;;;;5032646;28;20029;-68
2023/03/22 09:52:14;;;;;;;1.90;1.20;;;;;;;;;;5036619;28;20435;-67
2023/03/22 09:54:59;;;;;;;2.15;1.05;;;;;;;;;;5022344;28;20484;-66
2023/03/22 09:57:46;;;;;;;3.33;1.10;;;;;;;;;;5034920;28;20033;-71
2023/03/22 10:00:54;;;;;;;1.85;1.10;;;;;;;;;;5030682;28;20029;-80
2023/03/22 10:03:43;;;;;;;3.90;1.20;;;;;;;;;;5030579;28;20032;-81
2023/03/22 10:06:29;;;;;;;1.50;1.10;;;;;;;;;;5027647;28;20063;-80
2023/03/22 10:09:21;;;;;;;2.55;1.10;;;;;;;;;;5031606;28;20062;-80
2023/03/22 10:12:27;;;;;;;1.50;1.20;;;;;;;;;;5032712;28;20024;-79
2023/03/22 10:15:23;;;;;;;2.35;1.00;;;;;;;;;;5037279;28;20083;-81
2023/03/22 10:18:12;;;;;;;3.63;1.33;;;;;;;;;;5040246;28;20041;-69
2023/03/22 10:21:02;;;;;;;1.73;1.45;;;;;;;;;;5031382;28;20092;-69
2023/03/22 10:23:58;;;;;;;2.75;1.30;;;;;;;;;;5051967;28;20041;-66
2023/03/22 10:26:45;;;;;;;2.50;1.27;;;;;;;;;;5039068;28;20018;-65
2023/03/22 10:29:38;;;;;;;2.80;1.75;;;;;;;;;;5028961;28;20029;-64
2023/03/22 10:32:28;;;;;;;3.47;1.30;;;;;;;;;;5034950;28;20042;-64
2023/03/22 10:35:14;;;;;;;6.45;1.17;;;;;;;;;;5036146;28;20049;-67
2023/03/22 10:38:00;;;;;;;2.15;1.10;;;;;;;;;;5037766;28;20029;-71
2023/03/22 10:40:48;;;;;;;3.60;1.00;;;;;;;;;;5036524;28;20045;-68
2023/03/22 10:43:38;;;;;;;2.03;1.00;;;;;;;;;;5038409;28;20511;-69
2023/03/22 10:46:24;;;;;;;3.47;1.85;;;;;;;;;;5031709;28;20500;-71
2023/03/22 10:49:19;;;;;;;2.35;1.05;;;;;;;;;;5038922;28;20083;-70
2023/03/22 10:52:15;;;;;;;1.55;0.80;;;;;;;;;;5039659;28;20012;-66
2023/03/22 10:55:01;;;;;;;2.17;1.40;;;;;;;;;;5038550;28;20036;-66
2023/03/22 10:57:53;;;;;;;2.30;1.00;;;;;;;;;;5033367;28;20495;-65
2023/03/22 11:00:47;;;;;;;2.70;1.08;;;;;;;;;;5034030;28;20040;-63
2023/03/22 11:03:39;;;;;;;1.58;0.90;;;;;;;;;;5044896;28;20108;-64
2023/03/22 11:06:26;;;;;;;1.30;0.85;;;;;;;;;;5034749;28;20048;-63
2023/03/22 11:09:12;;;;;;;2.63;0.82;;;;;;;;;;5032458;28;20033;-68
2023/03/22 11:11:59;;;;;;;2.28;1.10;;;;;;;;;;5036172;28;20026;-84
2023/03/22 11:14:44;;;;;;;5.93;1.90;;;;;;;;;;5037978;28;20036;-65
2023/03/22 11:17:29;;;;;;;3.78;1.63;;;;;;;;;;5035485;28;20488;-64
2023/03/22 11:20:16;;;;;;;5.20;1.67;;;;;;;;;;5036016;28;20025;-65
2023/03/22 11:23:03;;;;;;;2.28;0.93;;;;;;;;;;5038593;28;20029;-65
2023/03/22 11:25:49;;;;;;;4.22;1.30;;;;;;;;;;5038723;28;20038;-63
2023/03/22 11:28:39;;;;;;;1.40;0.98;;;;;;;;;;5034052;28;20391;-71
2023/03/22 11:31:24;;;;;;;2.22;1.27;;;;;;;;;;5019659;28;20029;-71
2023/03/22 11:34:15;;;;;;;2.80;1.15;;;;;;;;;;5039160;28;20612;-72
2023/03/22 11:37:00;;;;;;;6.03;1.52;;;;;;;;;;5031723;28;20033;-71
2023/03/22 11:39:47;;;;;;;1.85;0.88;;;;;;;;;;5044474;28;20037;-70
2023/03/22 11:42:33;;;;;;;1.60;1.00;;;;;;;;;;5034814;28;20024;-68
2023/03/22 11:45:39;;;;;;;0.77;0.75;;;;;;;;;;5037881;28;20145;-68
2023/03/22 11:48:26;;;;;;;2.08;1.35;;;;;;;;;;5037930;28;20109;-64
2023/03/22 11:51:13;;;;;;;1.83;1.08;;;;;;;;;;5040161;28;20096;-71
2023/03/22 11:54:11;;;;;;;2.38;0.90;;;;;;;;;;5032219;28;20108;-68
2023/03/22 11:56:58;;;;;;;3.25;0.88;;;;;;;;;;5034158;28;20601;-66
2023/03/22 11:59:46;;;;;;;2.60;1.05;;;;;;;;;;5027053;28;20033;-68
2023/03/22 12:02:40;;;;;;;1.80;0.80;;;;;;;;;;5039232;28;20090;-68
2023/03/22 12:08:46;;;;;;;1.45;0.90;;;;;;;;;;5029892;28;20578;-67
2023/03/22 12:11:37;;;;;;;1.52;0.80;;;;;;;;;;5033012;28;20507;-65
2023/03/22 12:14:41;;;;;;;1.02;0.95;;;;;;;;;;5028957;28;20033;-66
2023/03/22 12:17:30;;;;;;;0.98;0.80;;;;;;;;;;5037763;28;20053;-67
2023/03/22 12:20:24;;;;;;;1.65;1.05;;;;;;;;;;5034418;28;20057;-65
2023/03/22 12:23:14;;;;;;;1.58;0.80;;;;;;;;;;5030118;28;20025;-65
2023/03/22 12:25:59;;;;;;;1.33;1.00;;;;;;;;;;5034929;28;20338;-64
2023/03/22 12:28:45;;;;;;;2.03;1.00;;;;;;;;;;5033597;28;21893;-64
2023/03/22 12:31:32;;;;;;;1.75;1.08;;;;;;;;;;5028818;28;21547;-65
2023/03/22 12:34:19;;;;;;;1.65;1.00;;;;;;;;;;5030886;28;20027;-65
2023/03/22 12:37:06;;;;;;;2.55;1.00;;;;;;;;;;5028484;28;20464;-65
2023/03/22 12:39:54;;;;;;;1.23;0.95;;;;;;;;;;5028261;28;20039;-67
2023/03/22 12:42:48;;;;;;;1.20;0.90;;;;;;;;;;5014507;28;20469;-64
2023/03/22 12:45:37;;;;;;;2.80;0.93;;;;;;;;;;5031510;28;20061;-60
2023/03/22 12:48:38;;;;;;;2.83;0.88;;;;;;;;;;5035118;28;20040;-62
2023/03/22 12:51:23;;;;;;;1.20;0.90;;;;;;;;;;5039906;28;20107;-63
2023/03/22 12:54:10;;;;;;;0.95;0.70;;;;;;;;;;5035188;28;20063;-62
2023/03/22 12:56:56;;;;;;;2.15;1.13;;;;;;;;;;5019656;28;20030;-62
2023/03/22 12:59:42;;;;;;;2.17;0.80;;;;;;;;;;5034115;28;20033;-70
2023/03/22 13:02:31;;;;;;;0.75;0.75;;;;;;;;;;5031502;28;20067;-64
2023/03/22 13:05:17;;;;;;;0.88;0.80;;;;;;;;;;5036577;28;20036;-66
2023/03/22 13:08:04;;;;;;;1.20;0.82;;;;;;;;;;5039284;28;20056;-68
2023/03/22 13:10:56;;;;;;;0.75;0.75;;;;;;;;;;5036505;28;20033;-67
2023/03/22 13:13:45;;;;;;;1.02;0.88;;;;;;;;;;5032379;28;20554;-69
2023/03/22 13:16:48;;;;;;;1.80;1.05;;;;;;;;;;5033239;28;20036;-64
2023/03/22 13:19:35;;;;;;;2.25;1.10;;;;;;;;;;5034038;28;20024;-69
2023/03/22 13:22:41;;;;;;;0.95;0.80;;;;;;;;;;5018058;28;20060;-67
2023/03/22 13:25:34;;;;;;;1.52;1.00;;;;;;;;;;5036107;28;20029;-65
2023/03/22 13:28:22;;;;;;;1.10;0.85;;;;;;;;;;5032135;28;20033;-65
2023/03/22 13:31:27;;;;;;;1.27;0.80;;;;;;;;;;5029306;28;20357;-65
2023/03/22 13:34:30;;;;;;;1.05;0.90;;;;;;;;;;5022590;28;20033;-64
2023/03/22 13:37:41;;;;;;;1.50;0.90;;;;;;;;;;5032433;28;20431;-68
2023/03/22 13:40:26;;;;;;;0.85;0.75;;;;;;;;;;5040849;28;20239;-62
2023/03/22 13:43:31;;;;;;;1.45;0.88;;;;;;;;;;5030233;28;20071;-62
2023/03/22 13:46:18;;;;;;;1.90;0.90;;;;;;;;;;5032432;28;20195;-61
2023/03/22 13:49:19;;;;;;;2.08;1.02;;;;;;;;;;5036512;28;20536;-65
2023/03/22 13:52:06;;;;;;;2.17;0.90;;;;;;;;;;5048023;28;20022;-65
2023/03/22 13:54:53;;;;;;;1.00;0.90;;;;;;;;;;5020864;28;20499;-68
2023/03/22 13:57:45;;;;;;;4.38;1.05;;;;;;;;;;5038894;28;20056;-65
2023/03/22 14:00:30;;;;;;;1.00;0.85;;;;;;;;;;5049800;28;20029;-67
2023/03/22 14:03:20;;;;;;;1.60;0.90;;;;;;;;;;5035498;28;20488;-63
2023/03/22 14:06:14;;;;;;;2.78;0.90;;;;;;;;;;5034254;28;20048;-67
2023/03/22 14:09:04;;;;;;;1.05;0.90;;;;;;;;;;5038866;28;20037;-64
2023/03/22 14:11:57;;;;;;;1.50;1.10;;;;;;;;;;5041083;28;20025;-67
2023/03/22 14:14:45;;;;;;;1.63;0.85;;;;;;;;;;5035398;28;20459;-62
2023/03/22 14:17:43;;;;;;;1.73;0.90;;;;;;;;;;5041177;28;20020;-68
2023/03/22 14:20:35;;;;;;;1.13;0.80;;;;;;;;;;5041223;28;20029;-69
2023/03/22 14:23:24;;;;;;;1.35;0.90;;;;;;;;;;5049369;28;20119;-69
2023/03/22 14:26:21;;;;;;;1.08;0.95;;;;;;;;;;5023476;28;20607;-68
2023/03/22 14:29:06;;;;;;;1.23;0.93;;;;;;;;;;5035760;28;20653;-68
2023/03/22 14:31:56;;;;;;;1.60;1.00;;;;;;;;;;5034334;28;20551;-66
2023/03/22 14:34:43;;;;;;;1.33;0.93;;;;;;;;;;5031900;28;20044;-70
2023/03/22 14:37:29;;;;;;;1.50;0.90;;;;;;;;;;5036424;28;20034;-63
2023/03/22 14:40:15;;;;;;;1.90;0.90;;;;;;;;;;5037590;28;20033;-65
2023/03/22 14:43:33;;;;;;;4.03;1.02;;;;;;;;;;5035727;28;20018;-66
2023/03/22 14:46:21;;;;;;;1.88;0.88;;;;;;;;;;5022846;28;20542;-67
2023/03/22 14:49:14;;;;;;;3.00;1.23;;;;;;;;;;5036194;28;20392;-66
2023/03/22 14:52:00;;;;;;;3.72;1.00;;;;;;;;;;5033582;28;20030;-66
2023/03/22 14:54:47;;;;;;;1.40;0.85;;;;;;;;;;5035711;28;20400;-66
2023/03/22 14:57:35;;;;;;;1.45;1.10;;;;;;;;;;5039391;28;20162;-65
2023/03/22 15:00:21;;;;;;;1.52;0.90;;;;;;;;;;5037443;28;20465;-66
2023/03/22 15:03:07;;;;;;;2.75;1.23;;;;;;;;;;5034214;28;20115;-65
2023/03/22 15:05:52;;;;;;;1.88;1.02;;;;;;;;;;5027428;28;20456;-64
2023/03/22 15:08:38;;;;;;;3.30;1.20;;;;;;;;;;5031761;28;20128;-65
2023/03/22 15:11:24;;;;;;;2.30;1.10;;;;;;;;;;5035246;28;20064;-69
2023/03/22 15:14:09;;;;;;;2.05;0.90;;;;;;;;;;5034292;28;20036;-66
2023/03/22 15:16:55;;;;;;;2.85;1.08;;;;;;;;;;5033759;28;20025;-66
2023/03/22 15:19:46;;;;;;;1.38;0.98;;;;;;;;;;5056373;28;20037;-64
2023/03/22 15:22:32;;;;;;;3.00;1.00;;;;;;;;;;5036307;28;20912;-64
2023/03/22 15:25:17;;;;;;;1.63;0.98;;;;;;;;;;5034038;28;20435;-64
2023/03/22 15:28:06;;;;;;;1.38;1.10;;;;;;;;;;5022992;28;20041;-68
2023/03/22 15:30:52;;;;;;;2.50;1.00;;;;;;;;;;5019996;28;20014;-71
2023/03/22 15:33:38;;;;;;;1.63;1.30;;;;;;;;;;5033506;28;20110;-70
2023/03/22 15:36:23;;;;;;;2.03;0.95;;;;;;;;;;5034956;28;20087;-69
2023/03/22 15:39:18;;;;;;;1.20;1.00;;;;;;;;;;5030832;28;20045;-68
2023/03/22 15:42:09;;;;;;;1.05;0.90;;;;;;;;;;5036949;28;20111;-72
2023/03/22 15:45:05;;;;;;;2.78;1.15;;;;;;;;;;5043498;28;20612;-70
2023/03/22 15:48:01;;;;;;;1.00;0.90;;;;;;;;;;5031809;28;20037;-63
2023/03/22 15:50:48;;;;;;;2.60;1.17;;;;;;;;;;5031583;28;20475;-64
2023/03/22 15:53:34;;;;;;;2.33;1.88;;;;;;;;;;5048491;28;20086;-66
2023/03/22 15:56:24;;;;;;;1.73;1.00;;;;;;;;;;5035498;28;20033;-63
2023/03/22 15:59:23;;;;;;;1.98;1.25;;;;;;;;;;5021078;28;20515;-64
2023/03/22 16:02:20;;;;;;;2.83;1.50;;;;;;;;;;5036537;28;20044;-64
2023/03/22 16:05:10;;;;;;;2.38;1.30;;;;;;;;;;5029173;28;20083;-71
2023/03/22 16:07:57;;;;;;;1.15;0.95;;;;;;;;;;5039706;28;20032;-69
2023/03/22 16:10:43;;;;;;;1.17;1.00;;;;;;;;;;5031189;28;20052;-72
2023/03/22 16:13:29;;;;;;;2.55;1.27;;;;;;;;;;5037096;28;20048;-70
2023/03/22 16:16:16;;;;;;;2.35;1.20;;;;;;;;;;5036486;28;20566;-70
2023/03/22 16:19:01;;;;;;;2.88;1.20;;;;;;;;;;5031054;28;20037;-71
2023/03/22 16:21:47;;;;;;;2.03;1.02;;;;;;;;;;5031466;28;20119;-70
2023/03/22 16:24:32;;;;;;;2.83;1.15;;;;;;;;;;5032279;28;20037;-70
2023/03/22 16:27:19;;;;;;;2.38;1.10;;;;;;;;;;5029440;28;20179;-69
2023/03/22 16:30:04;;;;;;;1.98;1.27;;;;;;;;;;5035826;28;20064;-64
2023/03/22 16:32:50;;;;;;;2.85;1.20;;;;;;;;;;5031599;28;20049;-68
2023/03/22 16:35:35;;;;;;;3.60;1.40;;;;;;;;;;5021092;28;20534;-70
2023/03/22 16:38:21;;;;;;;3.47;1.38;;;;;;;;;;5043709;28;20022;-70
2023/03/22 16:41:07;;;;;;;2.80;1.92;;;;;;;;;;5035449;28;20024;-69
2023/03/22 16:43:54;;;;;;;2.38;1.40;;;;;;;;;;5028410;28;20021;-73
2023/03/22 16:46:40;;;;;;;1.90;1.58;;;;;;;;;;5032227;28;20040;-68
2023/03/22 16:49:25;;;;;;;2.33;1.20;;;;;;;;;;5028352;28;20250;-69
2023/03/22 16:52:20;;;;;;;1.55;1.17;;;;;;;;;;5032148;28;20102;-70